Time;durP1;ratioP1;P1;durP2;ratioP2;P2;SDS_P1;SDS_P2;PMS_P1;PMS_P2;Temp;Humidity;BMP_temperature;BMP_pressure;BME280_temperature;BME280_humidity;BME280_pressure;Samples;Min_cycle;Max_cycle;Signal;HPM_P1;HPM_P2
2022/12/26 00:00:44;;;;;;;2.70;2.55;;;11.50;99.90;;;;;;5054404;28;20643;-65
2022/12/26 00:03:12;;;;;;;4.45;3.60;;;11.60;99.90;;;;;;5062195;28;20219;-65
2022/12/26 00:05:40;;;;;;;3.80;3.05;;;11.60;99.90;;;;;;5062828;28;20208;-66
2022/12/26 00:08:07;;;;;;;3.33;3.08;;;11.60;99.90;;;;;;5056741;28;20215;-65
2022/12/26 00:10:35;;;;;;;3.97;3.63;;;11.60;99.90;;;;;;5066493;28;20214;-65
2022/12/26 00:13:03;;;;;;;4.00;3.17;;;11.50;99.90;;;;;;5061576;28;20196;-66
2022/12/26 00:15:31;;;;;;;4.50;3.40;;;11.50;99.90;;;;;;5071072;28;20982;-65
2022/12/26 00:18:01;;;;;;;3.97;3.67;;;11.50;99.90;;;;;;5055554;28;20205;-65
2022/12/26 00:20:29;;;;;;;4.72;2.75;;;11.60;99.90;;;;;;5052613;28;20204;-65
2022/12/26 00:22:57;;;;;;;2.88;2.67;;;11.60;99.90;;;;;;5051789;28;20598;-65
2022/12/26 00:25:24;;;;;;;3.78;3.30;;;11.60;99.90;;;;;;5050974;28;20231;-65
2022/12/26 00:27:52;;;;;;;4.97;3.30;;;11.80;99.90;;;;;;5051827;28;20212;-65
2022/12/26 00:30:20;;;;;;;3.45;3.15;;;11.80;99.90;;;;;;5070353;28;20618;-65
2022/12/26 00:32:51;;;;;;;5.82;2.80;;;11.80;99.90;;;;;;5071901;28;20234;-66
2022/12/26 00:35:21;;;;;;;3.30;2.97;;;11.90;99.90;;;;;;5072157;28;20199;-66
2022/12/26 00:37:49;;;;;;;3.77;2.90;;;11.90;99.90;;;;;;5071695;28;20716;-66
2022/12/26 00:40:17;;;;;;;6.13;3.17;;;11.90;99.90;;;;;;5070967;28;20589;-67
2022/12/26 00:42:45;;;;;;;3.20;3.00;;;12.00;99.90;;;;;;5070604;28;20653;-67
2022/12/26 00:45:13;;;;;;;5.20;3.08;;;12.00;99.90;;;;;;5072740;28;20621;-67
2022/12/26 00:47:41;;;;;;;4.60;2.90;;;12.00;99.90;;;;;;5074160;28;20204;-66
2022/12/26 00:50:10;;;;;;;4.18;2.83;;;12.20;99.90;;;;;;5075414;28;21147;-66
2022/12/26 00:52:39;;;;;;;3.83;3.40;;;12.10;99.90;;;;;;5075829;28;20200;-66
2022/12/26 00:55:08;;;;;;;3.30;2.77;;;12.20;99.90;;;;;;5075483;28;20610;-66
2022/12/26 00:57:36;;;;;;;3.50;2.95;;;12.10;99.90;;;;;;5075288;28;20609;-66
2022/12/26 01:00:05;;;;;;;3.50;3.20;;;12.10;99.90;;;;;;5075522;28;20246;-66
2022/12/26 01:02:38;;;;;;;3.17;2.87;;;12.10;99.90;;;;;;5073876;28;20689;-66
2022/12/26 01:05:10;;;;;;;3.30;3.00;;;12.10;99.90;;;;;;5066128;28;20630;-66
2022/12/26 01:07:42;;;;;;;6.60;3.10;;;12.10;99.90;;;;;;5055243;28;20614;-67
2022/12/26 01:10:12;;;;;;;3.40;3.00;;;12.10;99.90;;;;;;5055764;28;20590;-67
2022/12/26 01:12:40;;;;;;;3.70;3.28;;;12.10;99.90;;;;;;5055268;28;20615;-67
2022/12/26 01:15:09;;;;;;;3.60;2.60;;;12.10;99.90;;;;;;5055756;28;20575;-67
2022/12/26 01:17:36;;;;;;;7.40;3.42;;;12.10;99.90;;;;;;5055313;28;20623;-67
2022/12/26 01:20:05;;;;;;;3.92;3.53;;;12.10;99.90;;;;;;5055646;28;20211;-67
2022/12/26 01:22:33;;;;;;;3.20;3.00;;;12.10;99.90;;;;;;5054848;28;20236;-67
2022/12/26 01:25:04;;;;;;;3.80;3.47;;;12.10;99.90;;;;;;5055408;28;20621;-66
2022/12/26 01:27:32;;;;;;;3.83;3.40;;;12.00;99.90;;;;;;5054921;28;21202;-66
2022/12/26 01:30:00;;;;;;;2.87;2.67;;;11.90;99.90;;;;;;5053945;28;20622;-67
2022/12/26 01:32:28;;;;;;;3.22;3.00;;;11.90;99.90;;;;;;5055423;28;20615;-67
2022/12/26 01:34:56;;;;;;;2.92;2.60;;;12.00;99.90;;;;;;5055361;28;20201;-65
2022/12/26 01:37:24;;;;;;;3.27;3.07;;;12.00;99.90;;;;;;5055459;28;20583;-65
2022/12/26 01:39:52;;;;;;;3.87;2.97;;;12.10;99.90;;;;;;5056659;28;20601;-65
2022/12/26 01:42:23;;;;;;;2.57;2.43;;;12.00;99.90;;;;;;5056866;28;20622;-65
2022/12/26 01:45:03;;;;;;;4.03;2.90;;;12.10;99.90;;;;;;5059699;28;21294;-65
2022/12/26 01:47:43;;;;;;;3.50;3.20;;;12.10;99.90;;;;;;5067458;28;20637;-65
2022/12/26 01:50:35;;;;;;;2.90;2.70;;;12.10;99.90;;;;;;5056435;28;20249;-65
2022/12/26 01:53:09;;;;;;;3.47;3.13;;;12.10;99.90;;;;;;5061822;28;20565;-65
2022/12/26 01:55:39;;;;;;;3.47;3.23;;;12.10;99.90;;;;;;5055348;28;20582;-65
2022/12/26 01:58:14;;;;;;;3.17;2.90;;;12.10;99.90;;;;;;5073925;28;20985;-65
2022/12/26 02:00:42;;;;;;;3.00;2.80;;;12.10;99.90;;;;;;5074461;28;21130;-66
2022/12/26 02:05:59;;;;;;;3.13;2.73;;;12.00;99.90;;;;;;5073796;28;21117;-65
2022/12/26 02:08:30;;;;;;;7.03;3.70;;;12.00;99.90;;;;;;5068324;28;21177;-65
2022/12/26 02:11:06;;;;;;;4.03;3.63;;;12.10;99.90;;;;;;5068064;28;20601;-66
2022/12/26 02:13:37;;;;;;;3.20;3.00;;;12.20;99.90;;;;;;5075070;28;20187;-66
2022/12/26 02:16:07;;;;;;;3.03;2.72;;;12.20;99.90;;;;;;5073759;28;20195;-66
2022/12/26 02:18:35;;;;;;;3.28;3.03;;;12.10;99.90;;;;;;5075270;28;20207;-65
2022/12/26 02:21:25;;;;;;;3.07;2.87;;;12.10;99.90;;;;;;5074145;28;20208;-65
2022/12/26 02:24:41;;;;;;;4.43;2.80;;;12.10;99.90;;;;;;5074559;28;20636;-65
2022/12/26 02:27:35;;;;;;;4.23;3.13;;;12.10;99.90;;;;;;5068957;28;20648;-65
2022/12/26 02:30:35;;;;;;;3.40;3.10;;;12.20;99.90;;;;;;5073225;28;20553;-65
2022/12/26 02:33:37;;;;;;;3.30;3.10;;;12.20;99.90;;;;;;5073816;28;20611;-65
2022/12/26 02:36:29;;;;;;;3.57;3.20;;;12.20;99.90;;;;;;5073276;28;20630;-65
2022/12/26 02:39:11;;;;;;;2.93;2.70;;;12.20;99.90;;;;;;5074134;28;20970;-65
2022/12/26 02:41:46;;;;;;;5.20;3.33;;;12.20;99.90;;;;;;5073199;28;20582;-65
2022/12/26 02:47:30;;;;;;;4.50;3.30;;;12.20;99.90;;;;;;5073264;28;20553;-65
2022/12/26 03:13:10;;;;;;;3.20;2.90;;;12.00;99.90;;;;;;5065953;28;20188;-64
2022/12/26 03:18:31;;;;;;;4.13;3.28;;;11.90;99.90;;;;;;5052564;28;20277;-65
2022/12/26 03:21:01;;;;;;;3.63;3.30;;;11.90;99.90;;;;;;5053624;28;20192;-64
2022/12/26 03:23:31;;;;;;;8.48;2.50;;;11.90;99.90;;;;;;5053163;28;20239;-64
2022/12/26 03:28:48;;;;;;;3.15;2.75;;;11.80;99.90;;;;;;5072845;28;20944;-64
2022/12/26 03:31:15;;;;;;;3.20;2.80;;;11.80;99.90;;;;;;5072318;28;20291;-64
2022/12/26 03:36:42;;;;;;;5.93;3.30;;;11.80;99.90;;;;;;5072800;28;20593;-65
2022/12/26 03:39:19;;;;;;;3.17;2.67;;;11.80;99.90;;;;;;5073493;28;20210;-64
2022/12/26 04:19:26;;;;;;;3.38;3.00;;;11.90;99.90;;;;;;5051866;28;20207;-66
2022/12/26 04:44:35;;;;;;;3.80;3.50;;;11.70;99.90;;;;;;5057473;28;20702;-65
2022/12/26 04:47:03;;;;;;;9.75;6.80;;;11.70;99.90;;;;;;5059236;28;20241;-65
2022/12/26 04:52:53;;;;;;;3.67;3.45;;;11.60;99.90;;;;;;5062417;28;20233;-65
2022/12/26 04:55:16;;;;;;;4.03;3.67;;;11.50;99.90;;;;;;5062013;28;20278;-64
2022/12/26 04:57:44;;;;;;;4.40;3.25;;;11.50;99.90;;;;;;5075397;28;20260;-64
2022/12/26 05:00:14;;;;;;;3.53;3.10;;;11.40;99.90;;;;;;5073909;28;20228;-64
2022/12/26 05:11:09;;;;;;;3.28;2.97;;;11.40;99.90;;;;;;5078841;28;20564;-64
2022/12/26 05:13:37;;;;;;;4.60;2.70;;;11.40;99.90;;;;;;5063949;28;20207;-65
2022/12/26 05:29:59;;;;;;;4.05;3.60;;;11.20;99.90;;;;;;5058646;28;20608;-65
2022/12/26 05:35:14;;;;;;;4.28;3.92;;;11.20;99.90;;;;;;5055015;28;20200;-65
2022/12/26 05:37:42;;;;;;;3.58;3.28;;;11.10;99.90;;;;;;5054594;28;20209;-65
2022/12/26 05:40:11;;;;;;;4.57;3.40;;;11.10;99.90;;;;;;5055047;28;20212;-65
2022/12/26 05:42:39;;;;;;;2.90;2.70;;;11.10;99.90;;;;;;5053788;28;20207;-64
2022/12/26 05:45:07;;;;;;;3.75;2.95;;;11.10;99.90;;;;;;5055108;28;20235;-65
2022/12/26 05:47:37;;;;;;;4.03;3.70;;;11.10;99.90;;;;;;5054149;28;20208;-66
2022/12/26 05:50:06;;;;;;;4.22;3.70;;;11.10;99.90;;;;;;5067246;28;20613;-66
2022/12/26 05:52:34;;;;;;;5.67;3.43;;;11.10;99.90;;;;;;5074292;28;20577;-65
2022/12/26 05:55:02;;;;;;;5.38;3.70;;;11.10;99.90;;;;;;5075409;28;20959;-65
2022/12/26 05:57:31;;;;;;;3.33;3.03;;;11.10;99.90;;;;;;5059948;28;20215;-66
2022/12/26 05:59:59;;;;;;;4.07;3.40;;;11.20;99.90;;;;;;5058560;28;20235;-66
2022/12/26 06:02:29;;;;;;;3.50;3.28;;;11.10;99.90;;;;;;5068408;28;20203;-65
2022/12/26 06:04:58;;;;;;;4.60;3.40;;;11.10;99.90;;;;;;5060889;28;20219;-64
2022/12/26 06:07:26;;;;;;;3.78;3.45;;;11.10;99.90;;;;;;5063189;28;20197;-65
2022/12/26 06:09:54;;;;;;;4.00;3.60;;;11.10;99.90;;;;;;5060973;28;20566;-64
2022/12/26 06:12:22;;;;;;;5.68;3.88;;;11.10;99.90;;;;;;5059924;28;20200;-64
2022/12/26 06:14:50;;;;;;;4.20;3.78;;;11.10;99.90;;;;;;5054529;28;20201;-65
2022/12/26 06:17:18;;;;;;;4.47;4.05;;;11.10;99.90;;;;;;5074377;28;20288;-65
2022/12/26 06:19:46;;;;;;;3.70;3.40;;;11.10;99.90;;;;;;5074646;28;20569;-65
2022/12/26 06:22:15;;;;;;;4.15;3.22;;;11.10;99.90;;;;;;5073786;28;20216;-64
2022/12/26 06:24:43;;;;;;;4.47;4.07;;;11.10;99.90;;;;;;5074597;28;20220;-64
2022/12/26 06:27:11;;;;;;;5.03;4.10;;;11.10;99.90;;;;;;5070290;28;20199;-64
2022/12/26 06:29:39;;;;;;;4.47;3.80;;;11.20;99.90;;;;;;5053796;28;20212;-64
2022/12/26 06:32:07;;;;;;;3.88;3.50;;;11.20;99.90;;;;;;5052420;28;20215;-63
2022/12/26 06:34:35;;;;;;;5.40;4.30;;;11.20;99.90;;;;;;5054041;28;20211;-64
2022/12/26 06:37:03;;;;;;;3.80;3.50;;;11.20;99.90;;;;;;5054432;28;20200;-65
2022/12/26 06:39:32;;;;;;;6.07;4.00;;;11.20;99.90;;;;;;5054080;28;20222;-64
2022/12/26 06:42:00;;;;;;;7.80;3.55;;;11.10;99.90;;;;;;5053962;28;20208;-65
2022/12/26 06:44:28;;;;;;;5.18;3.80;;;11.00;99.90;;;;;;5053315;28;20229;-65
2022/12/26 06:46:56;;;;;;;6.03;4.57;;;11.00;99.90;;;;;;5053841;28;20211;-66
2022/12/26 06:49:25;;;;;;;8.27;6.38;;;10.90;99.90;;;;;;5053852;28;20218;-66
2022/12/26 06:51:53;;;;;;;5.00;4.50;;;10.80;99.90;;;;;;5054528;28;20209;-65
2022/12/26 06:54:21;;;;;;;8.70;5.00;;;10.80;99.90;;;;;;5053785;28;20215;-65
2022/12/26 06:56:50;;;;;;;8.48;6.15;;;10.70;99.90;;;;;;5053321;28;20205;-66
2022/12/26 06:59:18;;;;;;;6.75;5.75;;;10.60;99.90;;;;;;5053667;28;20240;-65
2022/12/26 07:01:46;;;;;;;5.18;4.50;;;10.60;99.90;;;;;;5051405;28;20663;-65
2022/12/26 07:04:14;;;;;;;7.30;6.60;;;10.60;99.90;;;;;;5059472;28;20563;-65
2022/12/26 07:06:42;;;;;;;5.47;4.97;;;10.60;99.90;;;;;;5067880;28;20262;-64
2022/12/26 07:09:13;;;;;;;7.43;5.30;;;10.50;99.90;;;;;;5073410;28;20204;-64
2022/12/26 07:11:43;;;;;;;7.78;5.38;;;10.50;99.90;;;;;;5073058;28;20212;-65
2022/12/26 07:14:13;;;;;;;10.77;7.60;;;10.60;99.90;;;;;;5072003;28;20294;-65
2022/12/26 07:16:42;;;;;;;5.65;5.13;;;10.60;99.90;;;;;;5067904;28;20203;-65
2022/12/26 07:19:12;;;;;;;7.32;6.15;;;10.60;99.90;;;;;;5073077;28;20208;-65
2022/12/26 07:21:40;;;;;;;7.25;6.55;;;10.60;99.90;;;;;;5073141;28;20210;-66
2022/12/26 07:24:14;;;;;;;6.80;5.53;;;10.60;99.90;;;;;;5073528;28;20208;-65
2022/12/26 07:26:43;;;;;;;9.00;5.05;;;10.70;99.90;;;;;;5072072;28;20225;-64
2022/12/26 07:29:13;;;;;;;8.70;4.78;;;10.70;99.90;;;;;;5073343;28;20647;-64
2022/12/26 07:31:41;;;;;;;5.72;5.22;;;10.70;99.90;;;;;;5072353;28;20203;-64
2022/12/26 07:34:09;;;;;;;12.05;5.47;;;10.80;99.90;;;;;;5073205;28;20204;-64
2022/12/26 07:36:37;;;;;;;5.63;5.13;;;10.80;99.90;;;;;;5072470;28;20200;-64
2022/12/26 07:39:05;;;;;;;10.05;5.70;;;10.90;99.90;;;;;;5063383;28;20200;-64
2022/12/26 07:44:20;;;;;;;7.97;5.68;;;10.90;99.90;;;;;;5060348;28;20195;-65
2022/12/26 07:46:48;;;;;;;7.35;6.55;;;10.90;99.90;;;;;;5061017;28;20691;-65
2022/12/26 07:49:16;;;;;;;6.85;5.97;;;11.00;99.90;;;;;;5061640;28;20208;-64
2022/12/26 07:51:45;;;;;;;9.50;7.53;;;10.90;99.90;;;;;;5056836;28;20909;-65
2022/12/26 07:54:13;;;;;;;7.90;7.10;;;10.90;99.90;;;;;;5065833;28;20554;-65
2022/12/26 07:56:41;;;;;;;17.20;12.35;;;10.90;99.90;;;;;;5059586;28;20211;-65
2022/12/26 07:59:13;;;;;;;8.20;7.25;;;10.90;99.90;;;;;;5060166;28;20281;-65
2022/12/26 08:01:43;;;;;;;7.43;6.30;;;10.90;99.90;;;;;;5050179;28;20191;-65
2022/12/26 08:04:11;;;;;;;7.55;6.75;;;11.00;99.90;;;;;;5049514;28;20209;-63
2022/12/26 08:06:39;;;;;;;8.73;7.93;;;10.90;99.90;;;;;;5049213;28;20223;-65
2022/12/26 08:09:07;;;;;;;10.52;8.80;;;10.90;99.90;;;;;;5056185;28;20648;-63
2022/12/26 08:11:35;;;;;;;8.85;7.30;;;10.90;99.90;;;;;;5071306;28;20200;-63
2022/12/26 08:14:03;;;;;;;15.70;13.93;;;10.90;99.90;;;;;;5068168;28;20219;-65
2022/12/26 08:16:31;;;;;;;15.02;13.73;;;10.90;99.90;;;;;;5071749;28;20204;-64
2022/12/26 08:19:02;;;;;;;8.20;7.43;;;10.90;99.90;;;;;;5065749;28;20680;-64
2022/12/26 08:21:30;;;;;;;10.85;6.35;;;10.90;99.90;;;;;;5068941;28;20200;-64
2022/12/26 08:23:59;;;;;;;7.32;6.60;;;10.90;99.90;;;;;;5071948;28;20192;-64
2022/12/26 08:26:28;;;;;;;7.05;5.30;;;10.90;99.90;;;;;;5072150;28;20246;-64
2022/12/26 08:28:57;;;;;;;6.30;5.60;;;10.90;99.90;;;;;;5061484;28;20698;-65
2022/12/26 08:31:25;;;;;;;6.90;6.30;;;10.80;99.90;;;;;;5068156;28;20673;-65
2022/12/26 08:33:56;;;;;;;7.60;5.95;;;10.80;99.90;;;;;;5055175;28;20210;-65
2022/12/26 08:36:25;;;;;;;8.20;6.00;;;10.80;99.90;;;;;;5071882;28;20701;-65
2022/12/26 08:38:53;;;;;;;7.18;6.43;;;10.80;99.90;;;;;;5070385;28;20206;-65
2022/12/26 08:41:21;;;;;;;7.03;6.32;;;10.80;99.90;;;;;;5068007;28;20245;-65
2022/12/26 08:43:50;;;;;;;12.02;6.20;;;10.80;99.90;;;;;;5066997;28;20208;-65
2022/12/26 08:46:19;;;;;;;8.15;6.53;;;10.70;99.90;;;;;;5070821;28;20212;-66
2022/12/26 08:48:48;;;;;;;7.57;5.68;;;10.80;99.90;;;;;;5071424;28;20210;-67
2022/12/26 08:51:18;;;;;;;6.75;5.43;;;10.70;99.90;;;;;;5071297;28;20662;-66
2022/12/26 08:53:48;;;;;;;8.00;7.20;;;10.70;99.90;;;;;;5071910;28;20204;-66
2022/12/26 08:56:21;;;;;;;8.95;8.07;;;10.70;99.90;;;;;;5069700;28;20627;-66
2022/12/26 08:58:49;;;;;;;14.75;8.63;;;10.70;99.90;;;;;;5057346;28;20230;-66
2022/12/26 09:01:19;;;;;;;9.40;8.00;;;10.70;99.90;;;;;;5054840;28;20209;-66
2022/12/26 09:03:47;;;;;;;6.57;5.63;;;10.70;99.90;;;;;;5058349;28;21368;-66
2022/12/26 09:06:15;;;;;;;6.93;5.10;;;10.70;99.90;;;;;;5049677;28;20212;-66
2022/12/26 09:08:44;;;;;;;9.20;5.75;;;10.70;99.90;;;;;;5052834;28;20589;-66
2022/12/26 09:11:15;;;;;;;6.35;5.40;;;10.70;99.90;;;;;;5055394;28;20202;-67
2022/12/26 09:13:44;;;;;;;6.60;6.00;;;10.70;99.90;;;;;;5054216;28;20189;-66
2022/12/26 09:16:14;;;;;;;11.80;10.60;;;10.70;99.90;;;;;;5055996;28;20250;-65
2022/12/26 09:18:43;;;;;;;6.13;4.78;;;10.70;99.90;;;;;;5051039;28;21410;-66
2022/12/26 09:21:13;;;;;;;10.52;8.05;;;10.60;99.90;;;;;;5062632;28;20577;-66
2022/12/26 09:23:42;;;;;;;5.03;4.63;;;10.70;99.90;;;;;;5073180;28;20292;-66
2022/12/26 09:26:13;;;;;;;5.22;4.78;;;10.70;99.90;;;;;;5074834;28;20249;-67
2022/12/26 09:28:42;;;;;;;4.20;3.90;;;10.70;99.90;;;;;;5074728;28;20196;-66
2022/12/26 09:31:13;;;;;;;3.83;2.58;;;10.70;99.90;;;;;;5067916;28;20197;-66
2022/12/26 09:33:41;;;;;;;5.40;4.47;;;10.70;99.90;;;;;;5062300;28;20208;-67
2022/12/26 09:36:12;;;;;;;2.80;2.60;;;10.70;99.90;;;;;;5075183;28;20200;-66
2022/12/26 09:38:40;;;;;;;4.05;3.55;;;10.70;99.90;;;;;;5075203;28;20192;-66
2022/12/26 09:41:29;;;;;;;2.97;2.25;;;10.70;99.90;;;;;;5074501;28;20249;-66
2022/12/26 09:44:03;;;;;;;2.38;2.20;;;10.70;99.90;;;;;;5074670;28;20188;-66
2022/12/26 09:46:36;;;;;;;2.70;2.50;;;10.70;99.90;;;;;;5074823;28;20208;-66
2022/12/26 09:49:10;;;;;;;2.65;2.45;;;10.70;99.90;;;;;;5074429;28;20192;-66
2022/12/26 09:51:42;;;;;;;2.78;2.58;;;10.70;99.90;;;;;;5074718;28;20188;-66
2022/12/26 09:54:18;;;;;;;3.70;2.90;;;10.70;99.90;;;;;;5074740;28;20192;-65
2022/12/26 09:56:48;;;;;;;3.78;3.47;;;10.70;99.90;;;;;;5074939;28;20203;-65
2022/12/26 09:59:19;;;;;;;3.20;2.83;;;10.70;99.90;;;;;;5056835;28;20231;-65
2022/12/26 10:01:47;;;;;;;3.50;3.20;;;10.70;99.90;;;;;;5074190;28;20190;-65
2022/12/26 10:04:22;;;;;;;3.15;2.85;;;10.80;99.90;;;;;;5073701;28;20226;-65
2022/12/26 10:06:58;;;;;;;10.45;4.43;;;10.70;99.90;;;;;;5074823;28;20272;-65
2022/12/26 10:09:50;;;;;;;5.50;3.58;;;10.70;99.90;;;;;;5074504;28;20188;-65
2022/12/26 10:12:36;;;;;;;5.20;3.30;;;10.70;99.90;;;;;;5074714;28;20185;-65
2022/12/26 10:15:18;;;;;;;4.88;3.97;;;10.70;99.90;;;;;;5074848;28;20653;-65
2022/12/26 10:17:55;;;;;;;6.22;5.47;;;10.70;99.90;;;;;;5074111;28;20560;-65
2022/12/26 10:20:32;;;;;;;5.68;4.55;;;10.70;99.90;;;;;;5074167;28;20186;-66
2022/12/26 10:23:31;;;;;;;6.28;5.15;;;10.70;99.90;;;;;;5073068;28;20223;-65
2022/12/26 10:26:05;;;;;;;3.80;3.50;;;10.70;99.90;;;;;;5074535;28;20210;-65
2022/12/26 10:28:39;;;;;;;5.53;4.97;;;10.70;99.90;;;;;;5073639;28;20503;-66
2022/12/26 10:31:15;;;;;;;4.78;4.32;;;10.80;99.90;;;;;;5074398;28;20184;-66
2022/12/26 10:33:49;;;;;;;5.20;4.30;;;10.80;99.90;;;;;;5073833;28;20194;-65
2022/12/26 10:36:26;;;;;;;3.78;3.42;;;10.80;99.90;;;;;;5074107;28;20661;-65
2022/12/26 10:38:58;;;;;;;4.38;4.07;;;10.80;99.90;;;;;;5073069;28;20256;-66
2022/12/26 10:41:31;;;;;;;5.40;4.60;;;10.90;99.90;;;;;;5074373;28;20226;-65
2022/12/26 10:44:00;;;;;;;3.88;3.58;;;10.90;99.90;;;;;;5073171;28;20653;-66
2022/12/26 10:46:56;;;;;;;5.70;4.63;;;10.90;99.90;;;;;;5074183;28;20265;-66
2022/12/26 10:49:27;;;;;;;3.80;3.50;;;11.00;99.90;;;;;;5073204;28;20561;-68
2022/12/26 10:51:59;;;;;;;4.65;4.35;;;11.00;99.90;;;;;;5073848;28;20192;-65
2022/12/26 10:54:28;;;;;;;5.43;4.43;;;11.00;99.90;;;;;;5073287;28;20185;-66
2022/12/26 10:56:58;;;;;;;7.70;5.72;;;11.10;99.90;;;;;;5074033;28;20627;-65
2022/12/26 10:59:38;;;;;;;5.53;4.95;;;11.10;99.90;;;;;;5072654;28;20308;-65
2022/12/26 11:02:23;;;;;;;6.03;5.30;;;11.10;99.90;;;;;;5072731;28;20217;-68
2022/12/26 11:05:06;;;;;;;5.53;4.93;;;11.10;99.90;;;;;;5072247;28;20403;-65
2022/12/26 11:07:36;;;;;;;4.68;4.13;;;11.20;99.90;;;;;;5073278;28;20212;-64
2022/12/26 11:10:13;;;;;;;4.28;3.72;;;11.20;99.90;;;;;;5072659;28;20198;-65
2022/12/26 11:12:48;;;;;;;5.70;5.20;;;11.30;99.90;;;;;;5073377;28;20195;-65
2022/12/26 11:15:26;;;;;;;7.30;6.30;;;11.30;99.90;;;;;;5073224;28;20202;-65
2022/12/26 11:18:05;;;;;;;5.68;5.18;;;11.30;99.90;;;;;;5067212;28;20197;-65
2022/12/26 11:20:33;;;;;;;4.07;3.70;;;11.30;99.90;;;;;;5053095;28;20189;-65
2022/12/26 11:23:24;;;;;;;3.53;3.22;;;11.30;99.90;;;;;;5052908;28;20224;-66
2022/12/26 11:25:54;;;;;;;3.70;3.40;;;11.30;99.90;;;;;;5052054;28;20211;-65
2022/12/26 11:28:29;;;;;;;6.47;3.60;;;11.30;99.90;;;;;;5053015;28;20212;-65
2022/12/26 11:31:00;;;;;;;3.40;3.20;;;11.40;99.90;;;;;;5052040;28;20619;-65
2022/12/26 11:33:30;;;;;;;3.72;3.42;;;11.40;99.90;;;;;;5052791;28;20195;-65
2022/12/26 11:36:07;;;;;;;3.30;2.80;;;11.40;99.90;;;;;;5052434;28;20188;-66
2022/12/26 11:38:46;;;;;;;2.42;2.20;;;11.30;99.90;;;;;;5052573;28;20557;-65
2022/12/26 11:41:31;;;;;;;2.80;2.60;;;11.40;99.90;;;;;;5051944;28;20199;-65
2022/12/26 11:44:04;;;;;;;4.43;3.17;;;11.30;99.90;;;;;;5053064;28;20199;-66
2022/12/26 11:46:38;;;;;;;30.83;17.75;;;11.40;99.90;;;;;;5052702;28;20189;-65
2022/12/26 11:49:15;;;;;;;6.82;5.00;;;11.40;99.90;;;;;;5053096;28;20199;-66
2022/12/26 11:51:46;;;;;;;5.03;3.45;;;11.40;99.90;;;;;;5052334;28;20188;-66
2022/12/26 11:54:25;;;;;;;4.75;4.25;;;11.40;99.90;;;;;;5053048;28;20246;-66
2022/12/26 11:57:10;;;;;;;5.13;4.47;;;11.40;99.90;;;;;;5052346;28;20546;-65
2022/12/26 11:59:39;;;;;;;6.38;5.35;;;11.40;99.90;;;;;;5052596;28;20247;-65
2022/12/26 12:02:17;;;;;;;4.97;4.50;;;11.40;99.90;;;;;;5050577;28;20204;-65
2022/12/26 12:04:46;;;;;;;17.08;10.73;;;11.30;99.90;;;;;;5051243;28;20631;-66
2022/12/26 12:07:26;;;;;;;5.15;4.00;;;11.30;99.90;;;;;;5052276;28;20575;-64
2022/12/26 12:10:02;;;;;;;5.10;4.13;;;11.40;99.90;;;;;;5052742;28;20192;-64
2022/12/26 12:12:35;;;;;;;28.63;14.43;;;11.40;99.90;;;;;;5052145;28;20199;-65
2022/12/26 12:15:14;;;;;;;10.93;7.63;;;11.50;99.90;;;;;;5052569;28;20201;-65
2022/12/26 12:17:48;;;;;;;4.90;3.85;;;11.50;99.90;;;;;;5052071;28;20212;-65
2022/12/26 12:20:29;;;;;;;3.00;2.80;;;11.50;99.90;;;;;;5052798;28;20188;-65
2022/12/26 12:23:17;;;;;;;5.72;4.95;;;11.60;99.90;;;;;;5051465;28;20278;-65
2022/12/26 12:25:55;;;;;;;4.75;4.30;;;11.60;99.90;;;;;;5052780;28;20199;-65
2022/12/26 12:28:59;;;;;;;3.50;3.20;;;11.60;99.90;;;;;;5051357;28;20725;-65
2022/12/26 12:31:37;;;;;;;9.93;6.90;;;11.60;99.90;;;;;;5052277;28;20207;-65
2022/12/26 12:34:21;;;;;;;2.72;2.53;;;11.60;99.90;;;;;;5052281;28;20545;-65
2022/12/26 12:37:01;;;;;;;2.78;2.58;;;11.60;99.90;;;;;;5051961;28;20571;-65
2022/12/26 12:39:39;;;;;;;2.65;2.45;;;11.60;99.90;;;;;;5052156;28;20188;-65
2022/12/26 12:42:23;;;;;;;2.60;2.40;;;11.60;99.90;;;;;;5052205;28;20195;-65
2022/12/26 12:45:13;;;;;;;6.28;5.78;;;11.50;99.90;;;;;;5056174;28;20181;-66
2022/12/26 12:47:52;;;;;;;2.15;2.03;;;11.40;99.90;;;;;;5045798;28;20578;-65
2022/12/26 12:50:29;;;;;;;2.65;2.45;;;11.20;99.90;;;;;;5055542;28;20192;-66
2022/12/26 12:53:06;;;;;;;54.47;4.40;;;11.00;99.90;;;;;;5056368;28;20200;-65
2022/12/26 12:55:45;;;;;;;3.20;3.00;;;10.90;99.90;;;;;;5055219;28;20555;-66
2022/12/26 12:58:22;;;;;;;4.38;3.97;;;10.80;99.90;;;;;;5055409;28;20567;-65
2022/12/26 13:00:55;;;;;;;3.85;2.95;;;10.80;99.90;;;;;;5055622;28;20207;-65
2022/12/26 13:03:30;;;;;;;5.50;5.00;;;10.70;99.90;;;;;;5055019;28;20212;-66
2022/12/26 13:06:06;;;;;;;4.13;3.72;;;10.70;99.90;;;;;;5054128;28;20188;-65
2022/12/26 13:08:38;;;;;;;4.80;4.40;;;10.70;99.90;;;;;;5055927;28;20219;-65
2022/12/26 13:11:10;;;;;;;3.40;3.10;;;10.70;99.90;;;;;;5055375;28;20207;-65
2022/12/26 13:13:45;;;;;;;3.92;3.15;;;10.80;99.90;;;;;;5056038;28;20199;-65
2022/12/26 13:16:16;;;;;;;4.80;3.63;;;10.80;99.90;;;;;;5054804;28;20184;-65
2022/12/26 13:18:50;;;;;;;3.72;3.42;;;10.80;99.90;;;;;;5058975;28;20192;-65
2022/12/26 13:21:21;;;;;;;5.25;4.28;;;10.80;99.90;;;;;;5075085;28;20193;-65
2022/12/26 13:26:41;;;;;;;3.00;2.78;;;11.00;99.90;;;;;;5074445;28;20640;-65
2022/12/26 13:29:14;;;;;;;3.33;2.58;;;11.00;99.90;;;;;;5075020;28;20575;-65
2022/12/26 13:31:44;;;;;;;4.88;3.15;;;11.00;99.90;;;;;;5074999;28;20324;-65
2022/12/26 13:34:16;;;;;;;3.08;2.80;;;11.00;99.90;;;;;;5075900;28;20196;-65
2022/12/26 13:36:48;;;;;;;6.55;2.63;;;11.10;99.90;;;;;;5074625;28;20196;-66
2022/12/26 13:39:32;;;;;;;2.10;2.00;;;11.10;99.90;;;;;;5075225;28;20627;-65
2022/12/26 13:45:40;;;;;;;2.50;2.30;;;11.10;99.90;;;;;;5073916;28;20194;-67
2022/12/26 13:48:46;;;;;;;2.03;1.92;;;11.10;99.90;;;;;;5075117;28;20208;-67
2022/12/26 13:51:55;;;;;;;2.30;2.10;;;11.10;99.90;;;;;;5073399;28;20192;-66
2022/12/26 13:54:28;;;;;;;1.83;1.73;;;11.10;99.90;;;;;;5074411;28;20212;-66
2022/12/26 13:57:31;;;;;;;1.90;1.80;;;11.10;99.90;;;;;;5074630;28;20188;-66
2022/12/26 14:00:07;;;;;;;3.53;2.60;;;11.10;99.90;;;;;;5074812;28;20228;-66
2022/12/26 14:03:17;;;;;;;2.13;2.03;;;11.10;99.90;;;;;;5073399;28;20221;-66
2022/12/26 14:05:57;;;;;;;2.83;2.63;;;11.10;99.90;;;;;;5074133;28;20204;-66
2022/12/26 14:08:37;;;;;;;4.60;4.18;;;11.10;99.90;;;;;;5073517;28;20249;-66
2022/12/26 14:11:22;;;;;;;2.35;2.15;;;11.10;99.90;;;;;;5074221;28;20244;-65
2022/12/26 14:13:59;;;;;;;2.30;2.20;;;11.10;99.90;;;;;;5074674;28;20276;-65
2022/12/26 14:16:36;;;;;;;3.20;2.50;;;11.10;99.90;;;;;;5074847;28;20188;-67
2022/12/26 14:19:12;;;;;;;2.80;2.60;;;11.10;99.90;;;;;;5074367;28;20188;-66
2022/12/26 14:21:51;;;;;;;4.93;2.63;;;11.10;99.90;;;;;;5074746;28;20553;-66
2022/12/26 14:24:28;;;;;;;3.88;2.50;;;11.10;99.90;;;;;;5074007;28;20225;-66
2022/12/26 14:27:17;;;;;;;2.78;2.58;;;11.10;99.90;;;;;;5074395;28;20262;-66
2022/12/26 14:29:54;;;;;;;2.40;2.30;;;11.00;99.90;;;;;;5073868;28;20216;-66
2022/12/26 14:32:33;;;;;;;2.42;2.15;;;11.00;99.90;;;;;;5073857;28;20217;-66
2022/12/26 14:35:10;;;;;;;3.60;2.60;;;11.00;99.90;;;;;;5073033;28;20187;-66
2022/12/26 14:37:48;;;;;;;2.58;2.35;;;11.00;99.90;;;;;;5074242;28;20252;-66
2022/12/26 14:40:27;;;;;;;3.00;2.80;;;11.00;99.90;;;;;;5073844;28;20191;-65
2022/12/26 14:43:10;;;;;;;2.55;2.33;;;11.00;99.90;;;;;;5074050;28;20188;-66
2022/12/26 14:45:42;;;;;;;3.15;2.92;;;11.00;99.90;;;;;;5073538;28;20202;-65
2022/12/26 14:48:53;;;;;;;3.10;2.72;;;11.00;99.90;;;;;;5074085;28;20188;-66
2022/12/26 14:51:39;;;;;;;3.05;2.63;;;11.00;99.90;;;;;;5017608;28;20739;-65
2022/12/26 14:54:45;;;;;;;2.95;2.75;;;11.00;99.90;;;;;;5072142;28;20203;-66
2022/12/26 14:57:50;;;;;;;4.70;4.30;;;10.90;99.90;;;;;;5074202;28;20204;-65
2022/12/26 15:00:32;;;;;;;4.75;4.45;;;10.90;99.90;;;;;;5072769;28;20227;-66
2022/12/26 15:03:43;;;;;;;2.58;2.30;;;10.90;99.90;;;;;;5071230;28;20218;-66
2022/12/26 15:06:48;;;;;;;8.00;2.50;;;10.90;99.90;;;;;;5044389;28;20211;-65
2022/12/26 15:10:10;;;;;;;2.10;2.00;;;10.80;99.90;;;;;;5071878;28;20288;-65
2022/12/26 15:13:26;;;;;;;2.05;1.95;;;10.80;99.90;;;;;;5073813;28;20200;-65
2022/12/26 15:16:14;;;;;;;7.03;6.50;;;10.70;99.90;;;;;;5073155;28;20537;-66
2022/12/26 15:19:23;;;;;;;4.57;4.18;;;10.70;99.90;;;;;;5070186;28;20225;-65
2022/12/26 15:22:39;;;;;;;5.40;4.88;;;10.70;99.90;;;;;;5048579;28;20204;-66
2022/12/26 15:25:47;;;;;;;2.63;1.92;;;10.60;99.90;;;;;;5034584;28;20204;-65
2022/12/26 15:28:51;;;;;;;9.13;4.63;;;10.60;99.90;;;;;;5052894;28;20693;-64
2022/12/26 15:31:42;;;;;;;4.20;3.83;;;10.60;99.90;;;;;;5072244;28;20200;-65
2022/12/26 15:34:37;;;;;;;3.17;2.97;;;10.60;99.90;;;;;;5072458;28;20558;-65
2022/12/26 15:37:13;;;;;;;5.70;5.20;;;10.60;99.90;;;;;;5072601;28;20189;-65
2022/12/26 15:39:48;;;;;;;4.50;4.20;;;10.60;99.90;;;;;;5072189;28;20182;-66